Time,TemperatureF,DewpointF,PressureIn,WindDirection,WindDirectionDegrees,WindSpeedMPH,WindSpeedGustMPH,Humidity,HourlyPrecipIn,Conditions,Clouds,dailyrainin,SoftwareType,DateUTC
2013-02-11 00:12:00,11.1,5.0,30.27,NW,315,0.0,-999.0,76,-99.99,,,0.00,Acu-Link.com,2013-02-11 05:12:00,
2013-02-11 00:27:00,10.8,4.5,30.26,WNW,292,0.0,-999.0,75,-99.99,,,0.00,Acu-Link.com,2013-02-11 05:27:00,
2013-02-11 00:42:00,10.4,4.4,30.25,WNW,292,0.0,-999.0,76,-99.99,,,0.00,Acu-Link.com,2013-02-11 05:42:00,
2013-02-11 00:57:00,10.0,4.0,30.25,WNW,292,0.0,-999.0,76,-99.99,,,0.00,Acu-Link.com,2013-02-11 05:57:00,
2013-02-11 01:13:00,9.9,3.9,30.24,WNW,292,0.0,-999.0,76,-99.99,,,0.00,Acu-Link.com,2013-02-11 06:13:00,
2013-02-11 01:28:00,9.3,3.9,30.24,WNW,292,0.0,-999.0,78,-99.99,,,0.00,Acu-Link.com,2013-02-11 06:28:00,
2013-02-11 01:43:00,9.1,3.4,30.23,WNW,292,0.0,-999.0,77,-99.99,,,0.00,Acu-Link.com,2013-02-11 06:43:00,
2013-02-11 01:58:00,9.1,3.7,30.23,SE,135,0.0,-999.0,78,-99.99,,,0.00,Acu-Link.com,2013-02-11 06:58:00,
2013-02-11 02:13:00,9.0,3.6,30.22,West,270,0.0,-999.0,78,-99.99,,,0.00,Acu-Link.com,2013-02-11 07:13:00,
2013-02-11 02:28:00,8.6,3.2,30.22,NW,315,0.0,-999.0,78,-99.99,,,0.00,Acu-Link.com,2013-02-11 07:28:00,
2013-02-11 02:44:00,8.4,3.0,30.22,NW,315,0.0,-999.0,78,-99.99,,,0.00,Acu-Link.com,2013-02-11 07:44:00,
2013-02-11 02:59:00,8.4,3.0,30.20,NNE,22,0.0,-999.0,78,-99.99,,,0.00,Acu-Link.com,2013-02-11 07:59:00,
2013-02-11 03:14:00,8.1,2.7,30.20,NNW,337,0.0,-999.0,78,-99.99,,,0.00,Acu-Link.com,2013-02-11 08:14:00,
2013-02-11 03:29:00,8.4,3.3,30.20,NW,315,0.0,-999.0,79,-99.99,,,0.00,Acu-Link.com,2013-02-11 08:29:00,
2013-02-11 03:45:00,8.6,3.7,30.18,NNW,337,0.0,-999.0,80,-99.99,,,0.00,Acu-Link.com,2013-02-11 08:45:00,
2013-02-11 04:00:00,8.8,3.9,30.18,NW,315,0.0,-999.0,80,-99.99,,,0.00,Acu-Link.com,2013-02-11 09:00:00,
2013-02-11 04:17:00,8.8,3.9,30.19,NW,315,0.0,-999.0,80,-99.99,,,0.00,Acu-Link.com,2013-02-11 09:17:00,
2013-02-11 04:32:00,9.0,3.8,30.17,NNW,337,0.0,-999.0,79,-99.99,,,0.00,Acu-Link.com,2013-02-11 09:32:00,
2013-02-11 04:47:00,9.5,4.3,30.17,NNW,337,0.0,-999.0,79,-99.99,,,0.00,Acu-Link.com,2013-02-11 09:47:00,
2013-02-11 05:02:00,10.0,4.5,30.16,NNW,337,0.0,-999.0,78,-99.99,,,0.00,Acu-Link.com,2013-02-11 10:02:00,
2013-02-11 05:17:00,10.4,5.2,30.15,NNW,337,0.0,-999.0,79,-99.99,,,0.00,Acu-Link.com,2013-02-11 10:17:00,
2013-02-11 05:32:00,10.6,4.8,30.14,NNW,337,0.0,-999.0,77,-99.99,,,0.00,Acu-Link.com,2013-02-11 10:32:00,
2013-02-11 05:48:00,11.3,5.5,30.14,NNW,337,0.0,-999.0,77,-99.99,,,0.00,Acu-Link.com,2013-02-11 10:48:00,
2013-02-11 06:03:00,11.7,5.9,30.14,West,270,0.0,-999.0,77,-99.99,,,0.00,Acu-Link.com,2013-02-11 11:03:00,
2013-02-11 06:18:00,12.0,6.2,30.14,North,0,0.0,-999.0,77,-99.99,,,0.00,Acu-Link.com,2013-02-11 11:18:00,
2013-02-11 06:33:00,12.4,7.2,30.14,NNE,22,0.0,-999.0,79,-99.99,,,0.00,Acu-Link.com,2013-02-11 11:33:00,
2013-02-11 06:49:00,12.4,7.2,30.14,NW,315,0.0,-999.0,79,-99.99,,,0.00,Acu-Link.com,2013-02-11 11:49:00,
2013-02-11 07:04:00,13.1,7.6,30.14,NW,315,0.0,-999.0,78,-99.99,,,0.00,Acu-Link.com,2013-02-11 12:04:00,
2013-02-11 07:19:00,13.5,7.7,30.12,NW,315,0.0,-999.0,77,-99.99,,,0.00,Acu-Link.com,2013-02-11 12:19:00,
2013-02-11 07:34:00,14.5,8.3,30.12,ESE,112,0.0,-999.0,76,-99.99,,,0.00,Acu-Link.com,2013-02-11 12:34:00,
2013-02-11 07:50:00,15.1,8.9,30.11,NW,315,0.0,-999.0,76,-99.99,,,0.00,Acu-Link.com,2013-02-11 12:50:00,
2013-02-11 08:05:00,16.0,10.4,30.10,ENE,67,0.0,-999.0,78,-99.99,,,0.00,Acu-Link.com,2013-02-11 13:05:00,
2013-02-11 08:20:00,16.3,10.4,30.09,ESE,112,0.0,-999.0,77,-99.99,,,0.00,Acu-Link.com,2013-02-11 13:20:00,
2013-02-11 08:35:00,16.9,10.1,30.08,ESE,112,0.0,-999.0,74,-99.99,,,0.00,Acu-Link.com,2013-02-11 13:35:00,
2013-02-11 08:51:00,17.1,11.4,30.09,NNE,22,0.0,-999.0,78,-99.99,,,0.00,Acu-Link.com,2013-02-11 13:51:00,
2013-02-11 09:06:00,17.6,11.6,30.08,NW,315,0.0,-999.0,77,-99.99,,,0.00,Acu-Link.com,2013-02-11 14:06:00,
2013-02-11 09:21:00,18.1,11.5,30.07,SW,225,0.0,-999.0,75,-99.99,,,0.00,Acu-Link.com,2013-02-11 14:21:00,
2013-02-11 09:36:00,18.1,11.8,30.07,SSW,202,0.0,-999.0,76,-99.99,,,0.00,Acu-Link.com,2013-02-11 14:36:00,
2013-02-11 09:51:00,18.9,12.3,30.06,ESE,112,0.0,-999.0,75,-99.99,,,0.00,Acu-Link.com,2013-02-11 14:51:00,
2013-02-11 10:07:00,19.2,10.7,30.05,West,270,0.0,-999.0,69,-99.99,,,0.00,Acu-Link.com,2013-02-11 15:07:00,
2013-02-11 10:22:00,19.0,13.9,30.05,North,0,0.0,-999.0,80,-99.99,,,0.00,Acu-Link.com,2013-02-11 15:22:00,
2013-02-11 10:37:00,18.9,15.9,30.03,NNE,22,0.0,-999.0,88,-99.99,,,0.00,Acu-Link.com,2013-02-11 15:37:00,
2013-02-11 10:52:00,19.0,16.8,30.02,NNE,22,0.0,-999.0,91,-99.99,,,0.00,Acu-Link.com,2013-02-11 15:52:00,
2013-02-11 11:07:00,19.0,17.1,29.99,WNW,292,0.0,-999.0,92,-99.99,,,0.00,Acu-Link.com,2013-02-11 16:07:00,
2013-02-11 11:23:00,20.5,18.3,29.98,WNW,292,0.0,-999.0,91,-99.99,,,0.00,Acu-Link.com,2013-02-11 16:23:00,
2013-02-11 11:38:00,20.8,18.6,29.96,SSW,202,0.0,-999.0,91,-99.99,,,0.00,Acu-Link.com,2013-02-11 16:38:00,
2013-02-11 11:53:00,21.4,19.4,29.95,South,180,0.0,-999.0,92,-99.99,,,0.00,Acu-Link.com,2013-02-11 16:53:00,
2013-02-11 12:08:00,21.9,19.9,29.94,South,180,0.0,-999.0,92,-99.99,,,0.00,Acu-Link.com,2013-02-11 17:08:00,
2013-02-11 12:23:00,21.7,19.5,29.92,SSE,157,0.0,-999.0,91,-99.99,,,0.00,Acu-Link.com,2013-02-11 17:23:00,
2013-02-11 12:39:00,22.1,20.1,29.90,SSE,157,0.0,-999.0,92,-99.99,,,0.00,Acu-Link.com,2013-02-11 17:39:00,
2013-02-11 12:54:00,22.5,20.8,29.89,SSE,157,0.0,-999.0,93,-99.99,,,0.00,Acu-Link.com,2013-02-11 17:54:00,
2013-02-11 13:09:00,22.8,21.3,29.87,SSE,157,0.0,-999.0,94,-99.99,,,0.00,Acu-Link.com,2013-02-11 18:09:00,
2013-02-11 13:25:00,22.8,21.6,29.86,SSE,157,0.0,-999.0,95,-99.99,,,0.00,Acu-Link.com,2013-02-11 18:25:00,
2013-02-11 13:40:00,23.2,22.0,29.84,SSW,202,0.0,-999.0,95,-99.99,,,0.00,Acu-Link.com,2013-02-11 18:40:00,
2013-02-11 13:55:00,23.9,22.7,29.83,ESE,112,0.0,-999.0,95,-99.99,,,0.00,Acu-Link.com,2013-02-11 18:55:00,
2013-02-11 14:10:00,24.3,23.1,29.82,South,180,0.0,-999.0,95,-99.99,,,0.00,Acu-Link.com,2013-02-11 19:10:00,
2013-02-11 14:25:00,24.4,23.2,29.81,SSE,157,0.0,-999.0,95,-99.99,,,0.00,Acu-Link.com,2013-02-11 19:25:00,
2013-02-11 14:41:00,24.3,23.1,29.81,South,180,0.0,-999.0,95,-99.99,,,0.00,Acu-Link.com,2013-02-11 19:41:00,
2013-02-11 14:56:00,24.1,22.6,29.79,South,180,0.0,-999.0,94,-99.99,,,0.00,Acu-Link.com,2013-02-11 19:56:00,
2013-02-11 15:11:00,24.4,22.9,29.77,South,180,0.0,-999.0,94,-99.99,,,0.00,Acu-Link.com,2013-02-11 20:11:00,
2013-02-11 15:26:00,24.6,23.1,29.75,East,90,0.0,-999.0,94,-99.99,,,0.00,Acu-Link.com,2013-02-11 20:26:00,
2013-02-11 15:41:00,24.6,23.1,29.74,East,90,0.0,-999.0,94,-99.99,,,0.00,Acu-Link.com,2013-02-11 20:41:00,
2013-02-11 15:57:00,24.6,23.1,29.73,East,90,0.0,-999.0,94,-99.99,,,0.00,Acu-Link.com,2013-02-11 20:57:00,
2013-02-11 16:12:00,24.6,23.1,29.72,East,90,0.0,-999.0,94,-99.99,,,0.00,Acu-Link.com,2013-02-11 21:12:00,
2013-02-11 16:27:00,24.4,23.2,29.69,SE,135,0.0,-999.0,95,-99.99,,,0.00,Acu-Link.com,2013-02-11 21:27:00,
2013-02-11 16:43:00,24.4,23.2,29.67,SE,135,0.0,-999.0,95,-99.99,,,0.00,Acu-Link.com,2013-02-11 21:43:00,
2013-02-11 16:58:00,24.3,23.3,29.68,South,180,0.0,-999.0,96,-99.99,,,0.00,Acu-Link.com,2013-02-11 21:58:00,
2013-02-11 17:13:00,24.1,23.1,29.67,NNW,337,0.0,-999.0,96,-99.99,,,0.00,Acu-Link.com,2013-02-11 22:13:00,
2013-02-11 17:29:00,24.1,23.1,29.66,NE,45,0.0,-999.0,96,-99.99,,,0.00,Acu-Link.com,2013-02-11 22:29:00,
2013-02-11 17:44:00,23.9,23.2,29.66,SSW,202,0.0,-999.0,97,-99.99,,,0.00,Acu-Link.com,2013-02-11 22:44:00,
2013-02-11 17:59:00,23.9,23.2,29.65,NW,315,0.0,-999.0,97,-99.99,,,0.00,Acu-Link.com,2013-02-11 22:59:00,
2013-02-11 18:14:00,23.9,23.2,29.64,North,0,0.0,-999.0,97,-99.99,,,0.00,Acu-Link.com,2013-02-11 23:14:00,
2013-02-11 18:30:00,23.9,23.2,29.64,SW,225,0.0,-999.0,97,-99.99,,,0.00,Acu-Link.com,2013-02-11 23:30:00,
2013-02-11 18:45:00,23.5,22.5,29.63,NE,45,0.0,-999.0,96,-99.99,,,0.00,Acu-Link.com,2013-02-11 23:45:00,
2013-02-11 19:00:00,22.8,21.8,29.62,North,0,0.0,-999.0,96,-99.99,,,0.00,Acu-Link.com,2013-02-12 00:00:00,
2013-02-11 19:15:00,22.3,21.1,29.61,East,90,0.0,-999.0,95,-99.99,,,0.00,Acu-Link.com,2013-02-12 00:15:00,
2013-02-11 19:31:00,21.9,20.4,29.60,East,90,0.0,-999.0,94,-99.99,,,0.00,Acu-Link.com,2013-02-12 00:31:00,
2013-02-11 19:46:00,21.4,19.9,29.60,WNW,292,0.0,-999.0,94,-99.99,,,0.00,Acu-Link.com,2013-02-12 00:46:00,
2013-02-11 20:01:00,21.4,20.2,29.58,ESE,112,0.0,-999.0,95,-99.99,,,0.00,Acu-Link.com,2013-02-12 01:01:00,
2013-02-11 20:16:00,21.4,20.4,29.58,WNW,292,0.0,-999.0,96,-99.99,,,0.00,Acu-Link.com,2013-02-12 01:16:00,
2013-02-11 20:31:00,21.4,20.4,29.58,South,180,0.0,-999.0,96,-99.99,,,0.00,Acu-Link.com,2013-02-12 01:31:00,
2013-02-11 20:47:00,21.4,20.4,29.59,WNW,292,0.0,-999.0,96,-99.99,,,0.00,Acu-Link.com,2013-02-12 01:47:00,
2013-02-11 21:02:00,21.6,20.9,29.59,NW,315,0.0,-999.0,97,-99.99,,,0.00,Acu-Link.com,2013-02-12 02:02:00,
2013-02-11 21:17:00,21.6,20.6,29.59,SSE,157,0.0,-999.0,96,-99.99,,,0.00,Acu-Link.com,2013-02-12 02:17:00,
2013-02-11 21:32:00,21.9,21.2,29.57,SE,135,0.0,-999.0,97,-99.99,,,0.00,Acu-Link.com,2013-02-12 02:32:00,
2013-02-11 21:47:00,22.6,22.1,29.57,SW,225,0.0,-999.0,98,-99.99,,,0.00,Acu-Link.com,2013-02-12 02:47:00,
2013-02-11 22:03:00,22.6,22.1,29.56,NNE,22,0.0,-999.0,98,-99.99,,,0.00,Acu-Link.com,2013-02-12 03:03:00,
2013-02-11 22:18:00,22.8,22.3,29.56,ESE,112,0.0,-999.0,98,-99.99,,,0.00,Acu-Link.com,2013-02-12 03:18:00,
2013-02-11 22:33:00,23.0,22.5,29.54,South,180,0.0,-999.0,98,-99.99,,,0.00,Acu-Link.com,2013-02-12 03:33:00,
2013-02-11 22:48:00,23.4,22.9,29.54,South,180,0.0,-999.0,98,-99.99,,,0.00,Acu-Link.com,2013-02-12 03:48:00,
2013-02-11 23:03:00,23.4,22.9,29.54,South,180,0.0,-999.0,98,-99.99,,,0.00,Acu-Link.com,2013-02-12 04:03:00,
2013-02-11 23:19:00,23.5,23.0,29.54,WNW,292,0.0,-999.0,98,-99.99,,,0.00,Acu-Link.com,2013-02-12 04:19:00,
2013-02-11 23:34:00,23.5,23.0,29.53,East,90,0.0,-999.0,98,-99.99,,,0.00,Acu-Link.com,2013-02-12 04:34:00,
2013-02-11 23:49:00,23.5,23.0,29.52,East,90,0.0,-999.0,98,-99.99,,,0.00,Acu-Link.com,2013-02-12 04:49:00,